Portada
METAR-TAF:

METAR-TAF

Aeroports :

Comiso, Itàlia

latitud: 36-59-30N, longitud: 14-36-25E, altitud: 190 m

Observació

L'informe es va fer fa 16 minuts, a les 00:20 UTC
Vent 4 kt del Nord-Est
Temperatura 25°C
Humitat 36%
Pressió 1015 hPa
Visibilitat 10 km o més

METAR: LICB 190020Z AUTO 04004KT 9999 // NCD 25/09 Q1015

Hora: 02:36 (00:36 UTC)

Pronòstic

L'informe es va fer fa 1 hora i 36 minuts, a les 23:00 UTC
Pronòstic vàlid del 19 a les 00 UTC al 19 a les 24 UTC
Vent 4 kt amb direcció variable
Visibilitat 10 km o més
sense núvols per sota de 1500 mi sense presència de cumulonimbus.
Evolucionant progressivament
l' 19 a les 09 UTC al 19 a les 11 UTC
Vent 10 kt del Oest/Sud-Oest
Evolucionant progressivament
l' 19 a les 19 UTC al 19 a les 21 UTC
Vent 4 kt amb direcció variable

TAF: LICB 182300Z 1900/1924 VRB04KT CAVOK BECMG 1909/1911 25010KT BECMG 1919/1921 VRB04KT

Observacions i pronòstics meteorològics de més de 4000 aeroports (METAR i TAF).

Les estacions disponibles són els punts grocs i vermells al mapa.

Posi el ratolí al punt desitjat per veure el nom de l'estació.

Feu clic per veure les observacions i els pronòstics meteorològics.

Per canviar el mapa: feu clic els botons verds amb una creu de color negre per apropar; al botó verd amb un guió per allunyar la imatge; o en les fletxes verdes per a mapes adjacents.


METAR-TAF: